sensor_id;sensor_type;location;lat;lon;timestamp;pressure;altitude;pressure_sealevel;temperature;humidity
65329;BME280;51941;52.210;5.158;2023-12-20T00:00:28;101538.31;;;5.54;82.66
65329;BME280;51941;52.210;5.158;2023-12-20T00:02:55;101540.06;;;5.50;82.77
65329;BME280;51941;52.210;5.158;2023-12-20T00:05:23;101534.25;;;5.48;82.64
65329;BME280;51941;52.210;5.158;2023-12-20T00:07:50;101536.78;;;5.45;82.70
65329;BME280;51941;52.210;5.158;2023-12-20T00:10:16;101542.41;;;5.43;82.63
65329;BME280;51941;52.210;5.158;2023-12-20T00:12:43;101541.50;;;5.39;82.59
65329;BME280;51941;52.210;5.158;2023-12-20T00:15:10;101531.75;;;5.34;82.73
65329;BME280;51941;52.210;5.158;2023-12-20T00:17:36;101528.16;;;5.30;82.85
65329;BME280;51941;52.210;5.158;2023-12-20T00:20:04;101518.56;;;5.29;82.81
65329;BME280;51941;52.210;5.158;2023-12-20T00:22:33;101514.34;;;5.28;83.13
65329;BME280;51941;52.210;5.158;2023-12-20T00:24:59;101518.56;;;5.29;82.84
65329;BME280;51941;52.210;5.158;2023-12-20T00:27:26;101519.97;;;5.27;82.68
65329;BME280;51941;52.210;5.158;2023-12-20T00:29:52;101524.38;;;5.23;82.76
65329;BME280;51941;52.210;5.158;2023-12-20T00:32:19;101530.06;;;5.12;83.30
65329;BME280;51941;52.210;5.158;2023-12-20T00:34:46;101529.75;;;5.14;83.38
65329;BME280;51941;52.210;5.158;2023-12-20T00:37:13;101528.78;;;5.19;82.97
65329;BME280;51941;52.210;5.158;2023-12-20T00:39:41;101524.22;;;5.19;83.08
65329;BME280;51941;52.210;5.158;2023-12-20T00:42:07;101520.31;;;5.17;83.23
65329;BME280;51941;52.210;5.158;2023-12-20T00:44:34;101519.84;;;5.14;83.37
65329;BME280;51941;52.210;5.158;2023-12-20T00:47:01;101515.44;;;5.19;83.25
65329;BME280;51941;52.210;5.158;2023-12-20T00:49:27;101516.84;;;5.25;83.34
65329;BME280;51941;52.210;5.158;2023-12-20T00:51:54;101525.78;;;5.29;83.17
65329;BME280;51941;52.210;5.158;2023-12-20T00:54:21;101517.00;;;5.28;83.39
65329;BME280;51941;52.210;5.158;2023-12-20T00:56:49;101523.91;;;5.29;83.04
65329;BME280;51941;52.210;5.158;2023-12-20T00:59:16;101516.22;;;5.28;82.82
65329;BME280;51941;52.210;5.158;2023-12-20T01:01:43;101505.53;;;5.28;82.88
65329;BME280;51941;52.210;5.158;2023-12-20T01:04:10;101507.41;;;5.27;83.01
65329;BME280;51941;52.210;5.158;2023-12-20T01:06:36;101507.75;;;5.26;83.03
65329;BME280;51941;52.210;5.158;2023-12-20T01:09:04;101508.97;;;5.20;83.09
65329;BME280;51941;52.210;5.158;2023-12-20T01:11:30;101510.25;;;5.22;82.98
65329;BME280;51941;52.210;5.158;2023-12-20T01:13:58;101517.63;;;5.25;83.07
65329;BME280;51941;52.210;5.158;2023-12-20T01:16:25;101526.56;;;5.29;83.02
65329;BME280;51941;52.210;5.158;2023-12-20T01:18:52;101530.50;;;5.32;83.10
65329;BME280;51941;52.210;5.158;2023-12-20T01:21:18;101521.53;;;5.37;83.05
65329;BME280;51941;52.210;5.158;2023-12-20T01:23:45;101525.00;;;5.37;83.12
65329;BME280;51941;52.210;5.158;2023-12-20T01:26:12;101520.91;;;5.40;83.17
65329;BME280;51941;52.210;5.158;2023-12-20T01:28:38;101522.47;;;5.41;83.12
65329;BME280;51941;52.210;5.158;2023-12-20T01:31:07;101511.16;;;5.44;83.09
65329;BME280;51941;52.210;5.158;2023-12-20T01:33:34;101516.03;;;5.42;82.88
65329;BME280;51941;52.210;5.158;2023-12-20T01:36:00;101511.97;;;5.36;82.91
65329;BME280;51941;52.210;5.158;2023-12-20T01:38:27;101510.38;;;5.34;83.25
65329;BME280;51941;52.210;5.158;2023-12-20T01:40:53;101513.69;;;5.40;83.10
65329;BME280;51941;52.210;5.158;2023-12-20T01:43:20;101512.72;;;5.45;83.02
65329;BME280;51941;52.210;5.158;2023-12-20T01:45:47;101505.19;;;5.47;83.17
65329;BME280;51941;52.210;5.158;2023-12-20T01:48:16;101509.13;;;5.49;82.72
65329;BME280;51941;52.210;5.158;2023-12-20T01:50:43;101495.41;;;5.51;83.00
65329;BME280;51941;52.210;5.158;2023-12-20T01:53:12;101509.25;;;5.53;83.00
65329;BME280;51941;52.210;5.158;2023-12-20T01:55:40;101508.78;;;5.60;82.98
65329;BME280;51941;52.210;5.158;2023-12-20T01:58:07;101502.00;;;5.62;82.93
65329;BME280;51941;52.210;5.158;2023-12-20T02:00:36;101497.88;;;5.65;82.94
65329;BME280;51941;52.210;5.158;2023-12-20T02:03:03;101501.03;;;5.67;82.71
65329;BME280;51941;52.210;5.158;2023-12-20T02:05:32;101502.59;;;5.68;82.67
65329;BME280;51941;52.210;5.158;2023-12-20T02:07:59;101508.88;;;5.72;82.29
65329;BME280;51941;52.210;5.158;2023-12-20T02:10:27;101506.34;;;5.76;82.71
65329;BME280;51941;52.210;5.158;2023-12-20T02:12:54;101505.38;;;5.80;82.46
65329;BME280;51941;52.210;5.158;2023-12-20T02:15:21;101504.63;;;5.80;82.33
65329;BME280;51941;52.210;5.158;2023-12-20T02:17:48;101499.59;;;5.78;82.15
65329;BME280;51941;52.210;5.158;2023-12-20T02:20:15;101490.47;;;5.79;82.51
65329;BME280;51941;52.210;5.158;2023-12-20T02:22:43;101491.25;;;5.80;81.92
65329;BME280;51941;52.210;5.158;2023-12-20T02:25:10;101493.56;;;5.90;82.30
65329;BME280;51941;52.210;5.158;2023-12-20T02:27:38;101493.09;;;5.88;82.14
65329;BME280;51941;52.210;5.158;2023-12-20T02:30:07;101495.16;;;5.91;81.81
65329;BME280;51941;52.210;5.158;2023-12-20T02:32:34;101486.00;;;5.92;81.56
65329;BME280;51941;52.210;5.158;2023-12-20T02:35:01;101489.59;;;5.96;81.66
65329;BME280;51941;52.210;5.158;2023-12-20T02:37:27;101492.72;;;5.98;81.72
65329;BME280;51941;52.210;5.158;2023-12-20T02:39:54;101488.06;;;5.86;81.98
65329;BME280;51941;52.210;5.158;2023-12-20T02:42:21;101485.84;;;5.88;81.64
65329;BME280;51941;52.210;5.158;2023-12-20T02:44:48;101493.41;;;5.95;81.58
65329;BME280;51941;52.210;5.158;2023-12-20T02:47:14;101488.34;;;5.93;81.19
65329;BME280;51941;52.210;5.158;2023-12-20T02:49:41;101481.56;;;6.05;81.53
65329;BME280;51941;52.210;5.158;2023-12-20T02:52:08;101485.84;;;5.97;80.71
65329;BME280;51941;52.210;5.158;2023-12-20T02:54:34;101470.03;;;6.04;80.77
65329;BME280;51941;52.210;5.158;2023-12-20T02:57:03;101470.88;;;5.96;80.47
65329;BME280;51941;52.210;5.158;2023-12-20T02:59:30;101473.25;;;5.98;80.94
65329;BME280;51941;52.210;5.158;2023-12-20T03:01:56;101465.22;;;5.98;80.65
65329;BME280;51941;52.210;5.158;2023-12-20T03:04:23;101453.88;;;6.01;80.66
65329;BME280;51941;52.210;5.158;2023-12-20T03:06:50;101462.22;;;5.99;80.59
65329;BME280;51941;52.210;5.158;2023-12-20T03:09:17;101454.97;;;6.00;80.61
65329;BME280;51941;52.210;5.158;2023-12-20T03:11:44;101464.75;;;5.96;80.37
65329;BME280;51941;52.210;5.158;2023-12-20T03:14:12;101458.34;;;5.88;80.76
65329;BME280;51941;52.210;5.158;2023-12-20T03:16:38;101456.22;;;6.02;80.57
65329;BME280;51941;52.210;5.158;2023-12-20T03:19:05;101449.50;;;5.96;80.51
65329;BME280;51941;52.210;5.158;2023-12-20T03:21:31;101440.53;;;6.01;80.26
65329;BME280;51941;52.210;5.158;2023-12-20T03:23:58;101440.19;;;6.02;79.99
65329;BME280;51941;52.210;5.158;2023-12-20T03:26:25;101444.88;;;6.05;80.29
65329;BME280;51941;52.210;5.158;2023-12-20T03:28:51;101447.75;;;6.00;79.99
65329;BME280;51941;52.210;5.158;2023-12-20T03:31:19;101447.56;;;6.05;79.51
65329;BME280;51941;52.210;5.158;2023-12-20T03:33:47;101449.16;;;6.06;79.33
65329;BME280;51941;52.210;5.158;2023-12-20T03:36:14;101436.41;;;6.03;79.57
65329;BME280;51941;52.210;5.158;2023-12-20T03:38:40;101443.66;;;6.03;79.43
65329;BME280;51941;52.210;5.158;2023-12-20T03:41:07;101451.84;;;5.98;79.84
65329;BME280;51941;52.210;5.158;2023-12-20T03:43:34;101453.91;;;5.92;79.65
65329;BME280;51941;52.210;5.158;2023-12-20T03:46:03;101451.22;;;6.01;80.06
65329;BME280;51941;52.210;5.158;2023-12-20T03:48:31;101458.78;;;5.99;80.05
65329;BME280;51941;52.210;5.158;2023-12-20T03:50:58;101462.38;;;6.03;80.12
65329;BME280;51941;52.210;5.158;2023-12-20T03:53:25;101464.59;;;6.01;80.00
65329;BME280;51941;52.210;5.158;2023-12-20T03:55:51;101466.75;;;6.07;79.62
65329;BME280;51941;52.210;5.158;2023-12-20T03:58:18;101470.03;;;6.04;78.83
65329;BME280;51941;52.210;5.158;2023-12-20T04:00:45;101460.31;;;6.08;79.43
65329;BME280;51941;52.210;5.158;2023-12-20T04:03:12;101463.44;;;6.10;79.32
65329;BME280;51941;52.210;5.158;2023-12-20T04:05:41;101449.53;;;6.17;79.05
65329;BME280;51941;52.210;5.158;2023-12-20T04:08:08;101458.84;;;6.11;79.32
65329;BME280;51941;52.210;5.158;2023-12-20T04:10:35;101439.31;;;6.19;79.18
65329;BME280;51941;52.210;5.158;2023-12-20T04:13:03;101443.88;;;6.19;78.90
65329;BME280;51941;52.210;5.158;2023-12-20T04:15:30;101446.78;;;6.26;79.26
65329;BME280;51941;52.210;5.158;2023-12-20T04:17:56;101444.72;;;6.31;78.86
65329;BME280;51941;52.210;5.158;2023-12-20T04:20:23;101450.53;;;6.33;79.14
65329;BME280;51941;52.210;5.158;2023-12-20T04:22:51;101444.72;;;6.31;78.98
65329;BME280;51941;52.210;5.158;2023-12-20T04:25:18;101436.97;;;6.39;78.79
65329;BME280;51941;52.210;5.158;2023-12-20T04:27:45;101432.53;;;6.43;78.58
65329;BME280;51941;52.210;5.158;2023-12-20T04:30:12;101424.44;;;6.30;78.56
65329;BME280;51941;52.210;5.158;2023-12-20T04:32:38;101434.03;;;6.31;78.29
65329;BME280;51941;52.210;5.158;2023-12-20T04:35:05;101425.03;;;6.36;78.75
65329;BME280;51941;52.210;5.158;2023-12-20T04:37:32;101429.94;;;6.34;78.34
65329;BME280;51941;52.210;5.158;2023-12-20T04:40:00;101443.88;;;6.40;78.22
65329;BME280;51941;52.210;5.158;2023-12-20T04:42:27;101439.31;;;6.40;78.43
65329;BME280;51941;52.210;5.158;2023-12-20T04:44:54;101436.13;;;6.47;78.13
65329;BME280;51941;52.210;5.158;2023-12-20T04:47:20;101428.41;;;6.45;78.50
65329;BME280;51941;52.210;5.158;2023-12-20T04:49:47;101434.34;;;6.51;78.31
65329;BME280;51941;52.210;5.158;2023-12-20T04:52:14;101421.75;;;6.51;78.18
65329;BME280;51941;52.210;5.158;2023-12-20T04:54:41;101430.72;;;6.56;78.48
65329;BME280;51941;52.210;5.158;2023-12-20T04:57:09;101418.84;;;6.44;77.98
65329;BME280;51941;52.210;5.158;2023-12-20T04:59:36;101412.25;;;6.42;77.86
65329;BME280;51941;52.210;5.158;2023-12-20T05:02:03;101424.09;;;6.53;78.18
65329;BME280;51941;52.210;5.158;2023-12-20T05:04:30;101427.22;;;6.55;78.19
65329;BME280;51941;52.210;5.158;2023-12-20T05:06:56;101420.91;;;6.60;77.95
65329;BME280;51941;52.210;5.158;2023-12-20T05:09:23;101422.34;;;6.57;77.82
65329;BME280;51941;52.210;5.158;2023-12-20T05:11:50;101425.16;;;6.61;77.79
65329;BME280;51941;52.210;5.158;2023-12-20T05:14:18;101431.63;;;6.60;77.54
65329;BME280;51941;52.210;5.158;2023-12-20T05:16:44;101430.19;;;6.62;77.81
65329;BME280;51941;52.210;5.158;2023-12-20T05:19:11;101433.16;;;6.61;77.66
65329;BME280;51941;52.210;5.158;2023-12-20T05:21:38;101437.75;;;6.60;76.86
65329;BME280;51941;52.210;5.158;2023-12-20T05:24:05;101434.94;;;6.57;77.45
65329;BME280;51941;52.210;5.158;2023-12-20T05:26:31;101437.28;;;6.58;77.48
65329;BME280;51941;52.210;5.158;2023-12-20T05:28:58;101430.81;;;6.59;77.64
65329;BME280;51941;52.210;5.158;2023-12-20T05:31:26;101429.59;;;6.57;77.45
65329;BME280;51941;52.210;5.158;2023-12-20T05:33:53;101420.00;;;6.56;77.46
65329;BME280;51941;52.210;5.158;2023-12-20T05:36:19;101415.44;;;6.56;77.55
65329;BME280;51941;52.210;5.158;2023-12-20T05:38:49;101416.03;;;6.62;77.91
65329;BME280;51941;52.210;5.158;2023-12-20T05:41:16;101408.75;;;6.62;77.62
65329;BME280;51941;52.210;5.158;2023-12-20T05:43:42;101409.53;;;6.63;77.41
65329;BME280;51941;52.210;5.158;2023-12-20T05:46:10;101416.03;;;6.62;77.45
65329;BME280;51941;52.210;5.158;2023-12-20T05:48:38;101416.03;;;6.62;77.22
65329;BME280;51941;52.210;5.158;2023-12-20T05:51:05;101420.13;;;6.59;77.20
65329;BME280;51941;52.210;5.158;2023-12-20T05:53:32;101415.75;;;6.54;77.55
65329;BME280;51941;52.210;5.158;2023-12-20T05:55:58;101418.25;;;6.60;77.54
65329;BME280;51941;52.210;5.158;2023-12-20T05:58:25;101418.81;;;6.65;77.21
65329;BME280;51941;52.210;5.158;2023-12-20T06:00:52;101423.69;;;6.63;77.44
65329;BME280;51941;52.210;5.158;2023-12-20T06:03:18;101410.91;;;6.69;77.28
65329;BME280;51941;52.210;5.158;2023-12-20T06:05:47;101422.47;;;6.61;77.89
65329;BME280;51941;52.210;5.158;2023-12-20T06:08:13;101409.94;;;6.73;77.26
65329;BME280;51941;52.210;5.158;2023-12-20T06:10:40;101413.72;;;6.72;77.17
65329;BME280;51941;52.210;5.158;2023-12-20T06:13:07;101419.50;;;6.74;76.98
65329;BME280;51941;52.210;5.158;2023-12-20T06:15:33;101413.19;;;6.79;77.12
65329;BME280;51941;52.210;5.158;2023-12-20T06:18:00;101408.75;;;6.83;77.12
65329;BME280;51941;52.210;5.158;2023-12-20T06:20:27;101404.63;;;6.86;76.89
65329;BME280;51941;52.210;5.158;2023-12-20T06:22:55;101396.91;;;6.84;76.89
65329;BME280;51941;52.210;5.158;2023-12-20T06:25:22;101395.34;;;6.83;77.00
65329;BME280;51941;52.210;5.158;2023-12-20T06:27:48;101411.63;;;6.78;76.80
65329;BME280;51941;52.210;5.158;2023-12-20T06:30:15;101407.94;;;6.83;77.02
65329;BME280;51941;52.210;5.158;2023-12-20T06:32:42;101423.56;;;6.81;77.27
65329;BME280;51941;52.210;5.158;2023-12-20T06:35:09;101406.50;;;6.85;76.99
65329;BME280;51941;52.210;5.158;2023-12-20T06:37:35;101410.75;;;6.86;76.85
65329;BME280;51941;52.210;5.158;2023-12-20T06:40:05;101414.69;;;6.89;76.95
65329;BME280;51941;52.210;5.158;2023-12-20T06:42:32;101408.28;;;6.81;76.91
65329;BME280;51941;52.210;5.158;2023-12-20T06:44:59;101407.09;;;6.91;76.99
65329;BME280;51941;52.210;5.158;2023-12-20T06:47:25;101403.47;;;6.87;76.80
65329;BME280;51941;52.210;5.158;2023-12-20T06:49:52;101398.19;;;6.99;76.79
65329;BME280;51941;52.210;5.158;2023-12-20T06:52:19;101400.53;;;7.01;76.65
65329;BME280;51941;52.210;5.158;2023-12-20T06:54:46;101398.50;;;6.98;76.62
65329;BME280;51941;52.210;5.158;2023-12-20T06:57:14;101397.81;;;6.88;76.80
65329;BME280;51941;52.210;5.158;2023-12-20T06:59:41;101400.75;;;6.96;76.90
65329;BME280;51941;52.210;5.158;2023-12-20T07:02:08;101411.13;;;6.97;76.42
65329;BME280;51941;52.210;5.158;2023-12-20T07:04:39;101402.63;;;6.95;76.37
65329;BME280;51941;52.210;5.158;2023-12-20T07:07:05;101407.31;;;6.98;76.53
65329;BME280;51941;52.210;5.158;2023-12-20T07:09:32;101390.03;;;6.96;76.88
65329;BME280;51941;52.210;5.158;2023-12-20T07:11:59;101393.28;;;7.01;76.64
65329;BME280;51941;52.210;5.158;2023-12-20T07:14:27;101394.19;;;7.05;76.60
65329;BME280;51941;52.210;5.158;2023-12-20T07:16:54;101382.00;;;6.96;76.90
65329;BME280;51941;52.210;5.158;2023-12-20T07:19:21;101382.56;;;7.01;76.73
65329;BME280;51941;52.210;5.158;2023-12-20T07:21:48;101379.66;;;7.06;76.89
65329;BME280;51941;52.210;5.158;2023-12-20T07:24:14;101373.97;;;7.08;76.79
65329;BME280;51941;52.210;5.158;2023-12-20T07:26:41;101388.16;;;7.08;76.68
65329;BME280;51941;52.210;5.158;2023-12-20T07:29:08;101370.53;;;7.07;76.77
65329;BME280;51941;52.210;5.158;2023-12-20T07:31:36;101371.97;;;7.05;76.93
65329;BME280;51941;52.210;5.158;2023-12-20T07:34:03;101368.16;;;7.06;76.87
65329;BME280;51941;52.210;5.158;2023-12-20T07:36:30;101368.16;;;7.06;76.66
65329;BME280;51941;52.210;5.158;2023-12-20T07:38:57;101372.06;;;7.08;76.87
65329;BME280;51941;52.210;5.158;2023-12-20T07:41:24;101380.47;;;7.07;76.85
65329;BME280;51941;52.210;5.158;2023-12-20T07:43:50;101384.81;;;7.11;76.81
65329;BME280;51941;52.210;5.158;2023-12-20T07:46:20;101388.28;;;7.12;76.89
65329;BME280;51941;52.210;5.158;2023-12-20T07:48:49;101391.75;;;7.12;77.03
65329;BME280;51941;52.210;5.158;2023-12-20T07:51:16;101393.19;;;7.10;76.65
65329;BME280;51941;52.210;5.158;2023-12-20T07:53:42;101396.75;;;7.14;76.92
65329;BME280;51941;52.210;5.158;2023-12-20T07:56:15;101397.00;;;7.21;76.77
65329;BME280;51941;52.210;5.158;2023-12-20T07:58:42;101404.38;;;7.24;76.80
65329;BME280;51941;52.210;5.158;2023-12-20T08:01:09;101406.50;;;7.19;76.74
65329;BME280;51941;52.210;5.158;2023-12-20T08:03:36;101406.03;;;7.17;76.81
65329;BME280;51941;52.210;5.158;2023-12-20T08:06:04;101431.25;;;7.16;76.51
65329;BME280;51941;52.210;5.158;2023-12-20T08:08:31;101412.59;;;7.07;77.26
65329;BME280;51941;52.210;5.158;2023-12-20T08:10:57;101414.63;;;7.22;76.74
65329;BME280;51941;52.210;5.158;2023-12-20T08:13:25;101411.03;;;7.18;76.13
65329;BME280;51941;52.210;5.158;2023-12-20T08:15:51;101421.09;;;7.21;76.76
65329;BME280;51941;52.210;5.158;2023-12-20T08:18:18;101416.41;;;7.18;76.55
65329;BME280;51941;52.210;5.158;2023-12-20T08:20:45;101414.75;;;7.26;76.33
65329;BME280;51941;52.210;5.158;2023-12-20T08:23:14;101402.09;;;7.14;76.99
65329;BME280;51941;52.210;5.158;2023-12-20T08:25:41;101408.16;;;7.23;76.53
65329;BME280;51941;52.210;5.158;2023-12-20T08:28:08;101396.78;;;7.26;76.56
65329;BME280;51941;52.210;5.158;2023-12-20T08:30:34;101402.38;;;7.33;76.28
65329;BME280;51941;52.210;5.158;2023-12-20T08:33:01;101391.53;;;7.30;76.39
65329;BME280;51941;52.210;5.158;2023-12-20T08:35:28;101399.34;;;7.23;76.29
65329;BME280;51941;52.210;5.158;2023-12-20T08:37:56;101394.78;;;7.23;76.47
65329;BME280;51941;52.210;5.158;2023-12-20T08:40:24;101390.09;;;7.32;76.31
65329;BME280;51941;52.210;5.158;2023-12-20T08:42:50;101388.97;;;7.33;76.57
65329;BME280;51941;52.210;5.158;2023-12-20T08:45:17;101396.34;;;7.37;76.34
65329;BME280;51941;52.210;5.158;2023-12-20T08:47:44;101403.63;;;7.36;76.36
65329;BME280;51941;52.210;5.158;2023-12-20T08:50:11;101404.06;;;7.38;76.28
65329;BME280;51941;52.210;5.158;2023-12-20T08:52:37;101399.94;;;7.41;76.63
65329;BME280;51941;52.210;5.158;2023-12-20T08:55:06;101391.69;;;7.46;76.52
65329;BME280;51941;52.210;5.158;2023-12-20T08:57:34;101400.53;;;7.46;76.36
65329;BME280;51941;52.210;5.158;2023-12-20T09:00:01;101402.41;;;7.46;76.58
65329;BME280;51941;52.210;5.158;2023-12-20T09:02:28;101400.41;;;7.43;76.65
65329;BME280;51941;52.210;5.158;2023-12-20T09:04:55;101405.44;;;7.44;76.67
65329;BME280;51941;52.210;5.158;2023-12-20T09:07:22;101403.97;;;7.47;76.39
65329;BME280;51941;52.210;5.158;2023-12-20T09:09:49;101403.53;;;7.57;76.43
65329;BME280;51941;52.210;5.158;2023-12-20T09:12:17;101389.47;;;7.48;76.36
65329;BME280;51941;52.210;5.158;2023-12-20T09:14:45;101396.38;;;7.49;76.86
65329;BME280;51941;52.210;5.158;2023-12-20T09:17:12;101394.06;;;7.60;76.15
65329;BME280;51941;52.210;5.158;2023-12-20T09:19:38;101386.00;;;7.60;76.15
65329;BME280;51941;52.210;5.158;2023-12-20T09:22:05;101396.84;;;7.51;76.32
65329;BME280;51941;52.210;5.158;2023-12-20T09:24:33;101394.06;;;7.60;75.82
65329;BME280;51941;52.210;5.158;2023-12-20T09:26:59;101391.38;;;7.60;75.78
65329;BME280;51941;52.210;5.158;2023-12-20T09:29:26;101386.78;;;7.60;75.53
65329;BME280;51941;52.210;5.158;2023-12-20T09:31:54;101411.94;;;7.68;75.39
65329;BME280;51941;52.210;5.158;2023-12-20T09:34:22;101389.69;;;7.67;75.40
65329;BME280;51941;52.210;5.158;2023-12-20T09:36:49;101397.72;;;7.67;75.08
65329;BME280;51941;52.210;5.158;2023-12-20T09:39:17;101402.66;;;7.78;74.54
65329;BME280;51941;52.210;5.158;2023-12-20T09:41:51;101397.38;;;7.81;74.10
65329;BME280;51941;52.210;5.158;2023-12-20T09:44:24;101393.16;;;7.80;74.68
65329;BME280;51941;52.210;5.158;2023-12-20T09:46:54;101397.59;;;7.88;74.95
65329;BME280;51941;52.210;5.158;2023-12-20T09:49:21;101402.84;;;7.85;74.98
65329;BME280;51941;52.210;5.158;2023-12-20T09:51:50;101405.06;;;7.95;74.55
65329;BME280;51941;52.210;5.158;2023-12-20T09:54:17;101388.19;;;7.95;74.67
65329;BME280;51941;52.210;5.158;2023-12-20T09:56:45;101408.56;;;7.96;74.66
65329;BME280;51941;52.210;5.158;2023-12-20T09:59:11;101411.34;;;7.87;74.63
65329;BME280;51941;52.210;5.158;2023-12-20T10:01:39;101425.31;;;7.92;74.34
65329;BME280;51941;52.210;5.158;2023-12-20T10:04:10;101410.34;;;7.91;74.36
65329;BME280;51941;52.210;5.158;2023-12-20T10:06:38;101407.00;;;7.82;74.43
65329;BME280;51941;52.210;5.158;2023-12-20T10:09:05;101410.44;;;7.95;74.28
65329;BME280;51941;52.210;5.158;2023-12-20T10:11:32;101409.22;;;7.80;74.89
65329;BME280;51941;52.210;5.158;2023-12-20T10:13:59;101419.63;;;7.94;74.58
65329;BME280;51941;52.210;5.158;2023-12-20T10:16:28;101412.91;;;8.00;74.34
65329;BME280;51941;52.210;5.158;2023-12-20T10:18:55;101417.69;;;8.07;74.18
65329;BME280;51941;52.210;5.158;2023-12-20T10:21:23;101410.22;;;8.00;74.41
65329;BME280;51941;52.210;5.158;2023-12-20T10:23:51;101405.75;;;8.04;73.92
65329;BME280;51941;52.210;5.158;2023-12-20T10:26:22;101394.81;;;7.97;74.26
65329;BME280;51941;52.210;5.158;2023-12-20T10:28:50;101399.00;;;8.10;74.13
65329;BME280;51941;52.210;5.158;2023-12-20T10:31:28;101396.41;;;8.26;73.96
65329;BME280;51941;52.210;5.158;2023-12-20T10:33:56;101395.63;;;8.26;73.84
65329;BME280;51941;52.210;5.158;2023-12-20T10:36:25;101398.09;;;8.19;73.61
65329;BME280;51941;52.210;5.158;2023-12-20T10:38:52;101392.28;;;8.29;73.69
65329;BME280;51941;52.210;5.158;2023-12-20T10:41:24;101396.50;;;8.30;73.41
65329;BME280;51941;52.210;5.158;2023-12-20T10:43:51;101384.72;;;8.06;74.02
65329;BME280;51941;52.210;5.158;2023-12-20T10:46:19;101392.75;;;8.06;73.83
65329;BME280;51941;52.210;5.158;2023-12-20T10:48:48;101382.59;;;8.12;73.76
65329;BME280;51941;52.210;5.158;2023-12-20T10:51:17;101390.84;;;8.19;73.57
65329;BME280;51941;52.210;5.158;2023-12-20T10:53:47;101372.41;;;8.18;73.36
65329;BME280;51941;52.210;5.158;2023-12-20T10:56:16;101381.38;;;8.09;73.70
65329;BME280;51941;52.210;5.158;2023-12-20T10:58:45;101374.88;;;8.10;73.73
65329;BME280;51941;52.210;5.158;2023-12-20T11:01:13;101371.19;;;8.15;73.88
65329;BME280;51941;52.210;5.158;2023-12-20T11:03:43;101360.63;;;8.22;73.62
65329;BME280;51941;52.210;5.158;2023-12-20T11:06:21;101373.50;;;8.29;73.51
65329;BME280;51941;52.210;5.158;2023-12-20T11:09:10;101378.84;;;8.29;73.10
65329;BME280;51941;52.210;5.158;2023-12-20T11:11:59;101375.19;;;8.49;73.15
65329;BME280;51941;52.210;5.158;2023-12-20T11:14:33;101382.47;;;8.49;72.04
65329;BME280;51941;52.210;5.158;2023-12-20T11:17:08;101370.13;;;8.60;72.60
65329;BME280;51941;52.210;5.158;2023-12-20T11:19:38;101360.38;;;8.68;71.87
65329;BME280;51941;52.210;5.158;2023-12-20T11:22:12;101367.00;;;8.58;72.24
65329;BME280;51941;52.210;5.158;2023-12-20T11:24:46;101354.69;;;8.57;72.05
65329;BME280;51941;52.210;5.158;2023-12-20T11:27:13;101360.69;;;8.66;72.16
65329;BME280;51941;52.210;5.158;2023-12-20T11:29:41;101356.53;;;8.69;71.89
65329;BME280;51941;52.210;5.158;2023-12-20T11:32:28;101359.91;;;8.66;71.92
65329;BME280;51941;52.210;5.158;2023-12-20T11:34:56;101367.47;;;8.76;71.45
65329;BME280;51941;52.210;5.158;2023-12-20T11:37:28;101358.56;;;8.72;70.97
65329;BME280;51941;52.210;5.158;2023-12-20T11:40:01;101352.38;;;8.71;70.76
65329;BME280;51941;52.210;5.158;2023-12-20T11:42:32;101351.81;;;8.78;71.37
65329;BME280;51941;52.210;5.158;2023-12-20T11:45:02;101343.53;;;8.71;71.62
65329;BME280;51941;52.210;5.158;2023-12-20T11:47:30;101347.00;;;8.71;71.59
65329;BME280;51941;52.210;5.158;2023-12-20T11:49:57;101337.56;;;8.78;71.62
65329;BME280;51941;52.210;5.158;2023-12-20T11:52:25;101327.22;;;8.48;71.47
65329;BME280;51941;52.210;5.158;2023-12-20T11:54:52;101331.25;;;8.70;71.70
65329;BME280;51941;52.210;5.158;2023-12-20T11:57:20;101329.69;;;8.69;71.39
65329;BME280;51941;52.210;5.158;2023-12-20T11:59:47;101327.44;;;8.71;71.81
65329;BME280;51941;52.210;5.158;2023-12-20T12:02:14;101325.53;;;8.71;72.15
65329;BME280;51941;52.210;5.158;2023-12-20T12:04:41;101328.66;;;8.74;71.99
65329;BME280;51941;52.210;5.158;2023-12-20T12:07:08;101333.00;;;8.78;71.75
65329;BME280;51941;52.210;5.158;2023-12-20T12:09:35;101323.03;;;8.79;71.90
65329;BME280;51941;52.210;5.158;2023-12-20T12:12:02;101336.69;;;8.74;71.96
65329;BME280;51941;52.210;5.158;2023-12-20T12:14:30;101327.50;;;8.59;71.68
65329;BME280;51941;52.210;5.158;2023-12-20T12:16:57;101338.78;;;8.64;71.96
65329;BME280;51941;52.210;5.158;2023-12-20T12:19:25;101335.47;;;8.55;71.81
65329;BME280;51941;52.210;5.158;2023-12-20T12:22:04;101330.81;;;8.68;72.18
65329;BME280;51941;52.210;5.158;2023-12-20T12:24:31;101325.19;;;8.73;72.23
65329;BME280;51941;52.210;5.158;2023-12-20T12:26:58;101319.06;;;8.88;71.80
65329;BME280;51941;52.210;5.158;2023-12-20T12:29:25;101307.44;;;8.68;72.08
65329;BME280;51941;52.210;5.158;2023-12-20T12:31:53;101313.94;;;8.83;71.76
65329;BME280;51941;52.210;5.158;2023-12-20T12:34:20;101288.88;;;8.79;72.36
65329;BME280;51941;52.210;5.158;2023-12-20T12:36:48;101294.53;;;8.90;72.12
65329;BME280;51941;52.210;5.158;2023-12-20T12:39:14;101301.88;;;8.93;71.91
65329;BME280;51941;52.210;5.158;2023-12-20T12:41:41;101304.41;;;8.86;71.93
65329;BME280;51941;52.210;5.158;2023-12-20T12:44:08;101296.78;;;8.88;72.21
65329;BME280;51941;52.210;5.158;2023-12-20T12:46:34;101286.91;;;8.92;72.35
65329;BME280;51941;52.210;5.158;2023-12-20T12:49:03;101292.09;;;8.69;72.15
65329;BME280;51941;52.210;5.158;2023-12-20T12:51:29;101289.06;;;8.70;72.56
65329;BME280;51941;52.210;5.158;2023-12-20T12:53:57;101302.41;;;8.67;72.74
65329;BME280;51941;52.210;5.158;2023-12-20T12:56:23;101281.69;;;8.67;72.49
65329;BME280;51941;52.210;5.158;2023-12-20T12:58:50;101291.22;;;8.65;72.32
65329;BME280;51941;52.210;5.158;2023-12-20T13:01:17;101280.25;;;8.70;72.45